Time;durP1;ratioP1;P1;durP2;ratioP2;P2;SDS_P1;SDS_P2;PMS_P1;PMS_P2;Temp;Humidity;BMP_temperature;BMP_pressure;BME280_temperature;BME280_humidity;BME280_pressure;Samples;Min_cycle;Max_cycle;Signal;HPM_P1;HPM_P2
2024/01/30 00:00:38;;;;;;;;;;;;;;;3.57;64.90;102513.75;4195313;28;20021;-69
2024/01/30 00:02:39;;;;;;;;;;;;;;;3.58;64.78;102518.16;4195642;28;20433;-69
2024/01/30 00:04:41;;;;;;;;;;;;;;;3.57;64.64;102503.94;4194404;28;19925;-70
2024/01/30 00:06:43;;;;;;;;;;;;;;;3.54;64.70;102508.59;4195696;28;20449;-69
2024/01/30 00:08:48;;;;;;;;;;;;;;;3.52;64.88;102511.34;4195928;28;20023;-70
2024/01/30 00:10:50;;;;;;;;;;;;;;;3.54;64.84;102506.78;4193910;28;20026;-69
2024/01/30 00:12:52;;;;;;;;;;;;;;;3.51;64.99;102509.63;4193859;28;20027;-68
2024/01/30 00:14:54;;;;;;;;;;;;;;;3.50;64.83;102510.56;4196105;28;20496;-69
2024/01/30 00:16:56;;;;;;;;;;;;;;;3.55;65.00;102507.66;4194224;28;20015;-68
2024/01/30 00:18:57;;;;;;;;;;;;;;;3.53;64.92;102513.06;4195798;28;20390;-69
2024/01/30 00:20:59;;;;;;;;;;;;;;;3.52;64.77;102515.84;4195546;28;19925;-69
2024/01/30 00:23:01;;;;;;;;;;;;;;;3.48;64.83;102509.81;4195128;28;20053;-69
2024/01/30 00:25:05;;;;;;;;;;;;;;;3.47;65.22;102512.56;4195817;28;20525;-69
2024/01/30 00:27:08;;;;;;;;;;;;;;;3.42;65.35;102508.34;4192920;28;20027;-69
2024/01/30 00:29:09;;;;;;;;;;;;;;;3.41;65.14;102511.09;4194751;28;20452;-69
2024/01/30 00:31:12;;;;;;;;;;;;;;;3.40;65.31;102506.69;4195366;28;19924;-69
2024/01/30 00:33:15;;;;;;;;;;;;;;;3.35;65.33;102506.09;4194718;28;20023;-69
2024/01/30 00:35:17;;;;;;;;;;;;;;;3.33;65.48;102502.66;4195793;28;20011;-70
2024/01/30 00:37:19;;;;;;;;;;;;;;;3.31;65.43;102518.78;4194153;28;20028;-69
2024/01/30 00:39:21;;;;;;;;;;;;;;;3.31;65.49;102507.22;4177492;28;20044;-69
2024/01/30 00:41:24;;;;;;;;;;;;;;;3.29;65.85;102504.66;4193802;28;20015;-69
2024/01/30 00:43:26;;;;;;;;;;;;;;;3.28;65.67;102494.91;4193850;28;20019;-69
2024/01/30 00:45:28;;;;;;;;;;;;;;;3.29;65.60;102496.66;4195096;28;20034;-69
2024/01/30 00:47:29;;;;;;;;;;;;;;;3.32;65.51;102500.94;4195405;28;20023;-69
2024/01/30 00:49:31;;;;;;;;;;;;;;;3.33;65.65;102497.31;4195334;28;20282;-69
2024/01/30 00:51:33;;;;;;;;;;;;;;;3.31;65.55;102505.41;4195285;28;20041;-69
2024/01/30 00:53:35;;;;;;;;;;;;;;;3.33;65.51;102494.66;4195441;28;20016;-69
2024/01/30 00:55:37;;;;;;;;;;;;;;;3.32;65.53;102501.78;4195718;28;20450;-68
2024/01/30 00:57:40;;;;;;;;;;;;;;;3.33;65.61;102492.81;4196103;28;20034;-69
2024/01/30 00:59:42;;;;;;;;;;;;;;;3.33;65.44;102498.16;4195466;28;19928;-69
2024/01/30 01:01:44;;;;;;;;;;;;;;;3.34;65.48;102502.56;4194529;28;20035;-68
2024/01/30 01:03:46;;;;;;;;;;;;;;;3.34;65.23;102507.91;4174701;28;20008;-69
2024/01/30 01:05:48;;;;;;;;;;;;;;;3.34;65.56;102499.03;4194663;28;20047;-68
2024/01/30 01:07:50;;;;;;;;;;;;;;;3.34;65.33;102501.69;4194476;28;20023;-69
2024/01/30 01:09:52;;;;;;;;;;;;;;;3.36;65.43;102505.16;4177260;28;20028;-69
2024/01/30 01:11:54;;;;;;;;;;;;;;;3.34;65.68;102496.34;4193240;28;20019;-69
2024/01/30 01:13:56;;;;;;;;;;;;;;;3.34;65.60;102497.22;4190683;28;20031;-69
2024/01/30 01:15:58;;;;;;;;;;;;;;;3.35;65.69;102492.75;4194413;28;20023;-69
2024/01/30 01:18:00;;;;;;;;;;;;;;;3.34;65.21;102494.56;4194968;28;20052;-68
2024/01/30 01:20:03;;;;;;;;;;;;;;;3.33;65.43;102495.50;4193753;28;19928;-69
2024/01/30 01:22:05;;;;;;;;;;;;;;;3.34;65.71;102496.34;4172170;28;20020;-69
2024/01/30 01:24:06;;;;;;;;;;;;;;;3.33;65.53;102494.66;4194331;28;20016;-69
2024/01/30 01:26:09;;;;;;;;;;;;;;;3.32;65.71;102492.91;4195314;28;20477;-69
2024/01/30 01:28:11;;;;;;;;;;;;;;;3.31;65.67;102492.06;4194881;28;20023;-69
2024/01/30 01:30:18;;;;;;;;;;;;;;;3.31;65.77;102491.19;4194179;28;20019;-69
2024/01/30 01:32:21;;;;;;;;;;;;;;;3.29;65.79;102498.44;4193000;28;20018;-69
2024/01/30 01:34:23;;;;;;;;;;;;;;;3.28;65.57;102496.72;4194963;28;20023;-69
2024/01/30 01:36:25;;;;;;;;;;;;;;;3.25;65.79;102495.06;4194604;28;20027;-69
2024/01/30 01:38:27;;;;;;;;;;;;;;;3.24;65.66;102502.25;4194950;28;20015;-69
2024/01/30 01:40:29;;;;;;;;;;;;;;;3.23;65.61;102502.31;4194052;28;19971;-69
2024/01/30 01:42:31;;;;;;;;;;;;;;;3.22;65.75;102490.75;4193033;28;20003;-68
2024/01/30 01:44:33;;;;;;;;;;;;;;;3.20;65.86;102490.00;4194268;28;20007;-69
2024/01/30 01:46:36;;;;;;;;;;;;;;;3.21;65.87;102499.75;4194192;28;20015;-68
2024/01/30 01:48:39;;;;;;;;;;;;;;;3.15;66.04;102478.72;4170347;28;20028;-69
2024/01/30 01:50:40;;;;;;;;;;;;;;;3.19;65.75;102496.28;4193049;28;20022;-69
2024/01/30 01:52:42;;;;;;;;;;;;;;;3.16;65.91;102495.59;4194446;28;20405;-69
2024/01/30 01:54:43;;;;;;;;;;;;;;;3.16;65.79;102499.13;4194809;28;20035;-69
2024/01/30 01:56:45;;;;;;;;;;;;;;;3.17;66.14;102492.00;4194412;28;19924;-69
2024/01/30 01:58:47;;;;;;;;;;;;;;;3.16;66.36;102487.59;4194855;28;20023;-69
2024/01/30 02:00:49;;;;;;;;;;;;;;;3.16;66.18;102479.56;4194689;28;20401;-70
2024/01/30 02:02:51;;;;;;;;;;;;;;;3.15;66.17;102486.72;4193492;28;20011;-69
2024/01/30 02:04:53;;;;;;;;;;;;;;;3.15;66.12;102486.72;4193574;28;20445;-69
2024/01/30 02:06:55;;;;;;;;;;;;;;;3.15;66.15;102493.84;4192478;28;20039;-69
2024/01/30 02:08:57;;;;;;;;;;;;;;;3.15;66.31;102481.38;4195691;28;20453;-69
2024/01/30 02:10:59;;;;;;;;;;;;;;;3.13;66.38;102491.28;4192708;28;20035;-70
2024/01/30 02:13:01;;;;;;;;;;;;;;;3.14;66.33;102489.50;4192627;28;20043;-69
2024/01/30 02:15:04;;;;;;;;;;;;;;;3.13;66.49;102490.41;4194469;28;20011;-69
2024/01/30 02:17:06;;;;;;;;;;;;;;;3.09;66.46;102487.06;4194812;28;20023;-69
2024/01/30 02:19:09;;;;;;;;;;;;;;;3.12;66.74;102486.00;4196720;28;20191;-69
2024/01/30 02:21:12;;;;;;;;;;;;;;;3.13;66.94;102491.28;4196675;28;19933;-69
2024/01/30 02:23:14;;;;;;;;;;;;;;;3.17;66.89;102489.31;4197950;28;20028;-69
2024/01/30 02:25:16;;;;;;;;;;;;;;;3.14;66.45;102490.34;4196810;28;20015;-69
2024/01/30 02:27:18;;;;;;;;;;;;;;;3.15;66.66;102486.72;4195416;28;20016;-70
2024/01/30 02:29:20;;;;;;;;;;;;;;;3.16;66.65;102491.09;4196364;28;20019;-69
2024/01/30 02:31:24;;;;;;;;;;;;;;;3.15;66.57;102496.53;4196029;28;20445;-69
2024/01/30 02:33:26;;;;;;;;;;;;;;;3.13;66.74;102493.94;4194758;28;20019;-69
2024/01/30 02:35:27;;;;;;;;;;;;;;;3.10;66.58;102491.44;4197701;28;20024;-68
2024/01/30 02:37:31;;;;;;;;;;;;;;;3.12;66.78;102486.91;4197670;28;20346;-69
2024/01/30 02:39:33;;;;;;;;;;;;;;;3.11;66.74;102487.84;4196853;28;20031;-69
2024/01/30 02:41:35;;;;;;;;;;;;;;;3.10;67.01;102493.25;4179073;28;20476;-69
2024/01/30 02:43:37;;;;;;;;;;;;;;;3.10;67.24;102494.09;4194738;28;20479;-69
2024/01/30 02:45:39;;;;;;;;;;;;;;;3.08;67.14;102481.81;4197736;28;20505;-69
2024/01/30 02:47:40;;;;;;;;;;;;;;;3.04;67.15;102487.31;4196481;28;20024;-69
2024/01/30 02:49:42;;;;;;;;;;;;;;;3.01;67.06;102483.94;4197098;28;20028;-69
2024/01/30 02:51:44;;;;;;;;;;;;;;;2.96;67.26;102486.91;4196403;28;20400;-69
2024/01/30 02:53:47;;;;;;;;;;;;;;;2.92;67.27;102479.13;4197249;28;20018;-69
2024/01/30 02:55:49;;;;;;;;;;;;;;;2.91;67.45;102478.25;4197257;28;20027;-69
2024/01/30 02:57:51;;;;;;;;;;;;;;;2.89;67.41;102473.00;4197973;28;20493;-69
2024/01/30 02:59:53;;;;;;;;;;;;;;;2.85;67.62;102471.47;4196235;28;20019;-69
2024/01/30 03:01:55;;;;;;;;;;;;;;;2.81;67.41;102480.56;4178497;28;20027;-69
2024/01/30 03:03:57;;;;;;;;;;;;;;;2.80;67.80;102478.84;4196515;28;20019;-69
2024/01/30 03:05:59;;;;;;;;;;;;;;;2.78;67.85;102479.88;4197419;28;20625;-69
2024/01/30 03:08:01;;;;;;;;;;;;;;;2.74;67.66;102476.50;4195725;28;20015;-69
2024/01/30 03:10:03;;;;;;;;;;;;;;;2.74;67.85;102476.50;4195008;28;20495;-69
2024/01/30 03:12:06;;;;;;;;;;;;;;;2.76;68.21;102473.75;4193749;28;20031;-69
2024/01/30 03:14:10;;;;;;;;;;;;;;;2.78;68.21;102474.56;4196316;28;20013;-69
2024/01/30 03:16:11;;;;;;;;;;;;;;;2.83;68.43;102464.47;4196986;28;20027;-69
2024/01/30 03:18:13;;;;;;;;;;;;;;;2.84;68.43;102464.41;4196071;28;20027;-70
2024/01/30 03:20:16;;;;;;;;;;;;;;;2.83;68.52;102459.13;4192230;28;19959;-70
2024/01/30 03:22:17;;;;;;;;;;;;;;;2.84;68.83;102461.72;4197603;28;20469;-70
2024/01/30 03:24:19;;;;;;;;;;;;;;;2.84;68.69;102464.41;4192216;28;20019;-70
2024/01/30 03:26:23;;;;;;;;;;;;;;;2.86;68.94;102466.97;4196901;28;20027;-70
2024/01/30 03:28:25;;;;;;;;;;;;;;;2.86;68.70;102461.66;4197380;28;20007;-70
2024/01/30 03:30:26;;;;;;;;;;;;;;;2.85;68.73;102463.47;4179461;28;20023;-70
2024/01/30 03:32:28;;;;;;;;;;;;;;;2.83;69.11;102457.31;4197877;28;19955;-70
2024/01/30 03:34:29;;;;;;;;;;;;;;;2.83;69.12;102457.31;4198945;28;20466;-70
2024/01/30 03:36:32;;;;;;;;;;;;;;;2.83;68.85;102459.13;4197456;28;19964;-70
2024/01/30 03:38:34;;;;;;;;;;;;;;;2.82;69.09;102455.63;4195475;28;20020;-70
2024/01/30 03:40:36;;;;;;;;;;;;;;;2.79;68.85;102457.56;4195433;28;19970;-70
2024/01/30 03:42:40;;;;;;;;;;;;;;;2.78;69.15;102455.88;4194890;28;20376;-70
2024/01/30 03:44:42;;;;;;;;;;;;;;;2.73;69.00;102458.78;4197708;28;20042;-70
2024/01/30 03:46:45;;;;;;;;;;;;;;;2.75;69.18;102454.22;4174728;28;20024;-70
2024/01/30 03:48:47;;;;;;;;;;;;;;;2.77;69.31;102454.13;4179590;28;20355;-70
2024/01/30 03:50:49;;;;;;;;;;;;;;;2.76;69.32;102455.97;4197038;28;20233;-70
2024/01/30 03:52:51;;;;;;;;;;;;;;;2.75;69.33;102456.91;4194801;28;20019;-70
2024/01/30 03:54:52;;;;;;;;;;;;;;;2.73;69.36;102453.47;4196348;28;20011;-70
2024/01/30 03:56:54;;;;;;;;;;;;;;;2.76;69.75;102447.94;4195465;28;20023;-70
2024/01/30 03:58:58;;;;;;;;;;;;;;;2.78;69.77;102448.72;4195898;28;20007;-70
2024/01/30 04:01:00;;;;;;;;;;;;;;;2.77;69.61;102448.81;4195362;28;20457;-69
2024/01/30 04:03:02;;;;;;;;;;;;;;;2.74;69.76;102449.81;4191176;28;20389;-69
2024/01/30 04:05:03;;;;;;;;;;;;;;;2.74;69.60;102448.97;4193637;28;20434;-70
2024/01/30 04:07:06;;;;;;;;;;;;;;;2.74;69.74;102456.97;4194053;28;20023;-70
2024/01/30 04:09:09;;;;;;;;;;;;;;;2.69;69.66;102449.22;4198374;28;20028;-69
2024/01/30 04:11:11;;;;;;;;;;;;;;;2.68;70.01;102450.16;4177505;28;20469;-69
2024/01/30 04:13:13;;;;;;;;;;;;;;;2.67;69.83;102453.78;4189851;28;19963;-70
2024/01/30 04:15:16;;;;;;;;;;;;;;;2.68;70.07;102451.03;4193351;28;20366;-70
2024/01/30 04:17:18;;;;;;;;;;;;;;;2.70;69.91;102454.47;4195677;28;19970;-70
2024/01/30 04:19:20;;;;;;;;;;;;;;;2.70;70.15;102451.81;4194684;28;20011;-70
2024/01/30 04:21:22;;;;;;;;;;;;;;;2.73;70.08;102457.91;4193186;28;20019;-69
2024/01/30 04:23:24;;;;;;;;;;;;;;;2.74;70.02;102454.31;4178534;28;19976;-69
2024/01/30 04:25:26;;;;;;;;;;;;;;;2.75;70.08;102458.72;4177421;28;20020;-70
2024/01/30 04:27:28;;;;;;;;;;;;;;;2.76;70.27;102461.28;4194590;28;20369;-70
2024/01/30 04:29:32;;;;;;;;;;;;;;;2.75;70.05;102443.56;4191421;28;20024;-70
2024/01/30 04:31:36;;;;;;;;;;;;;;;2.75;70.11;102459.56;4195542;28;20023;-70
2024/01/30 04:33:38;;;;;;;;;;;;;;;2.76;70.13;102447.94;4190845;28;20016;-70
2024/01/30 04:35:40;;;;;;;;;;;;;;;2.76;70.42;102458.63;4196630;28;20022;-70
2024/01/30 04:37:42;;;;;;;;;;;;;;;2.78;70.50;102450.53;4195749;28;20445;-70
2024/01/30 04:39:44;;;;;;;;;;;;;;;2.76;70.61;102458.63;4194941;28;20027;-69
2024/01/30 04:41:46;;;;;;;;;;;;;;;2.74;70.68;102446.31;4193135;28;20044;-70
2024/01/30 04:43:48;;;;;;;;;;;;;;;2.72;70.72;102449.06;4194292;28;19928;-70
2024/01/30 04:45:50;;;;;;;;;;;;;;;2.72;70.68;102449.06;4196928;28;20023;-70
2024/01/30 04:47:54;;;;;;;;;;;;;;;2.71;70.75;102444.66;4195622;28;20020;-70
2024/01/30 04:49:56;;;;;;;;;;;;;;;2.66;71.00;102444.91;4195985;28;20355;-70
2024/01/30 04:51:58;;;;;;;;;;;;;;;2.68;70.76;102447.50;4195608;28;20466;-70
2024/01/30 04:54:00;;;;;;;;;;;;;;;2.63;71.10;102437.09;4195786;28;20063;-70
2024/01/30 04:56:02;;;;;;;;;;;;;;;2.66;70.87;102441.38;4192788;28;20023;-70
2024/01/30 04:58:04;;;;;;;;;;;;;;;2.63;71.25;102444.22;4176792;28;20024;-69
2024/01/30 05:00:07;;;;;;;;;;;;;;;2.61;71.28;102440.78;4192088;28;20040;-70
2024/01/30 05:02:08;;;;;;;;;;;;;;;2.58;71.48;102444.47;4195078;28;20015;-70
2024/01/30 05:04:12;;;;;;;;;;;;;;;2.57;71.35;102448.09;4194844;28;19955;-69
2024/01/30 05:06:14;;;;;;;;;;;;;;;2.58;71.30;102447.13;4192070;28;20008;-70
2024/01/30 05:08:16;;;;;;;;;;;;;;;2.57;71.32;102447.22;4179923;28;19972;-70
2024/01/30 05:10:18;;;;;;;;;;;;;;;2.59;71.54;102453.34;4195137;28;20011;-69
2024/01/30 05:12:20;;;;;;;;;;;;;;;2.58;71.49;102446.28;4156098;28;20506;-70
2024/01/30 05:14:22;;;;;;;;;;;;;;;2.59;71.59;102448.88;4192733;28;20043;-70
2024/01/30 05:16:24;;;;;;;;;;;;;;;2.60;71.46;102447.94;4195401;28;20015;-70
2024/01/30 05:18:26;;;;;;;;;;;;;;;2.64;71.42;102451.28;4196212;28;20015;-69
2024/01/30 05:20:29;;;;;;;;;;;;;;;2.66;71.31;102447.56;4193661;28;20022;-70
2024/01/30 05:22:31;;;;;;;;;;;;;;;2.66;71.49;102446.72;4196203;28;20453;-70
2024/01/30 05:24:33;;;;;;;;;;;;;;;2.67;71.56;102446.63;4196125;28;19946;-70
2024/01/30 05:26:35;;;;;;;;;;;;;;;2.63;71.40;102452.22;4193190;28;20020;-69
2024/01/30 05:28:37;;;;;;;;;;;;;;;2.60;71.56;102447.94;4178477;28;20027;-69
2024/01/30 05:30:39;;;;;;;;;;;;;;;2.57;71.41;102440.09;4191682;28;20011;-70
2024/01/30 05:32:41;;;;;;;;;;;;;;;2.59;71.50;102445.34;4177104;28;20023;-69
2024/01/30 05:34:43;;;;;;;;;;;;;;;2.59;71.51;102445.34;4168671;28;20060;-70
2024/01/30 05:36:46;;;;;;;;;;;;;;;2.61;71.67;102451.44;4194559;28;20018;-69
2024/01/30 05:38:48;;;;;;;;;;;;;;;2.60;71.69;102447.06;4191614;28;20015;-69
2024/01/30 05:40:50;;;;;;;;;;;;;;;2.60;71.85;102450.59;4190925;28;20445;-70
2024/01/30 05:42:52;;;;;;;;;;;;;;;2.61;71.97;102446.13;4191026;28;20019;-69
2024/01/30 05:44:54;;;;;;;;;;;;;;;2.62;71.70;102448.69;4193676;28;19929;-69
2024/01/30 05:46:56;;;;;;;;;;;;;;;2.66;71.67;102444.91;4194157;28;20011;-70
2024/01/30 05:49:00;;;;;;;;;;;;;;;2.68;71.97;102439.47;4175581;28;19964;-70
2024/01/30 05:51:03;;;;;;;;;;;;;;;2.66;71.68;102438.72;4191439;28;20629;-69
2024/01/30 05:53:06;;;;;;;;;;;;;;;2.67;71.54;102443.97;4193465;28;19952;-69
2024/01/30 05:55:08;;;;;;;;;;;;;;;2.66;71.77;102436.91;4175421;28;20019;-69
2024/01/30 05:57:10;;;;;;;;;;;;;;;2.67;71.82;102449.31;4194612;28;20015;-70
2024/01/30 05:59:12;;;;;;;;;;;;;;;2.65;71.84;102434.31;4193680;28;20038;-69
2024/01/30 06:01:14;;;;;;;;;;;;;;;2.65;71.60;102435.19;4190147;28;20020;-69
2024/01/30 06:03:16;;;;;;;;;;;;;;;2.69;71.95;102438.56;4192107;28;20019;-70
2024/01/30 06:05:18;;;;;;;;;;;;;;;2.73;71.85;102440.13;4175614;28;19924;-69
2024/01/30 06:07:20;;;;;;;;;;;;;;;2.75;71.83;102437.38;4196009;28;19955;-69
2024/01/30 06:09:23;;;;;;;;;;;;;;;2.75;71.63;102442.69;4194930;28;20482;-70
2024/01/30 06:11:25;;;;;;;;;;;;;;;2.74;71.70;102444.47;4192021;28;20474;-69
2024/01/30 06:13:27;;;;;;;;;;;;;;;2.75;71.88;102443.56;4190566;28;20019;-70
2024/01/30 06:15:30;;;;;;;;;;;;;;;2.77;71.65;102436.31;4194956;28;20363;-69
2024/01/30 06:17:32;;;;;;;;;;;;;;;2.76;71.47;102434.59;4194937;28;20417;-70
2024/01/30 06:19:34;;;;;;;;;;;;;;;2.76;71.59;102439.94;4193432;28;20012;-70
2024/01/30 06:21:38;;;;;;;;;;;;;;;2.75;71.77;102432.88;4192997;28;20350;-70
2024/01/30 06:23:40;;;;;;;;;;;;;;;2.73;71.71;102433.91;4192400;28;20110;-69
2024/01/30 06:25:43;;;;;;;;;;;;;;;2.70;71.66;102432.28;4193887;28;20279;-69
2024/01/30 06:27:45;;;;;;;;;;;;;;;2.69;71.62;102436.72;4190736;28;20035;-69
2024/01/30 06:29:47;;;;;;;;;;;;;;;2.67;71.95;102427.09;4194779;28;20019;-69
2024/01/30 06:31:49;;;;;;;;;;;;;;;2.64;71.83;102429.94;4195277;28;19987;-70
2024/01/30 06:33:51;;;;;;;;;;;;;;;2.63;71.88;102425.53;4193667;28;20016;-69
2024/01/30 06:35:53;;;;;;;;;;;;;;;2.65;72.11;102428.97;4193289;28;20023;-69
2024/01/30 06:37:55;;;;;;;;;;;;;;;2.65;72.13;102427.19;4194084;28;20015;-69
2024/01/30 06:39:57;;;;;;;;;;;;;;;2.68;72.22;102434.16;4192380;28;20437;-69
2024/01/30 06:41:59;;;;;;;;;;;;;;;2.67;72.00;102427.97;4192401;28;20028;-69
2024/01/30 06:44:02;;;;;;;;;;;;;;;2.68;72.15;102432.34;4191252;28;19948;-69
2024/01/30 06:46:05;;;;;;;;;;;;;;;2.72;72.08;102432.19;4194433;28;19929;-69
2024/01/30 06:48:07;;;;;;;;;;;;;;;2.74;72.23;102427.63;4194409;28;20457;-69
2024/01/30 06:50:09;;;;;;;;;;;;;;;2.76;72.25;102431.94;4191002;28;20031;-69
2024/01/30 06:52:11;;;;;;;;;;;;;;;2.76;72.03;102429.28;4191549;28;20023;-69
2024/01/30 06:54:13;;;;;;;;;;;;;;;2.78;72.16;102423.84;4192838;28;20102;-68
2024/01/30 06:56:15;;;;;;;;;;;;;;;2.79;72.08;102431.78;4190898;28;20007;-69
2024/01/30 06:58:18;;;;;;;;;;;;;;;2.81;71.88;102423.69;4188109;28;20021;-69
2024/01/30 07:00:21;;;;;;;;;;;;;;;2.79;72.22;102434.44;4192409;28;20015;-69
2024/01/30 07:02:22;;;;;;;;;;;;;;;2.80;72.05;102435.28;4191680;28;20034;-69
2024/01/30 07:04:24;;;;;;;;;;;;;;;2.79;72.31;102434.44;4194442;28;19926;-69
2024/01/30 07:06:25;;;;;;;;;;;;;;;2.81;72.34;102443.22;4193583;28;19943;-69
2024/01/30 07:08:27;;;;;;;;;;;;;;;2.82;71.97;102444.06;4198726;28;19925;-69
2024/01/30 07:10:29;;;;;;;;;;;;;;;2.81;72.41;102435.22;4192369;28;20024;-69
2024/01/30 07:12:31;;;;;;;;;;;;;;;2.81;72.41;102439.69;4193940;28;19956;-70
2024/01/30 07:14:35;;;;;;;;;;;;;;;2.82;72.29;102442.28;4195237;28;20453;-70
2024/01/30 07:16:37;;;;;;;;;;;;;;;2.85;72.51;102442.13;4190446;28;20012;-69
2024/01/30 07:18:38;;;;;;;;;;;;;;;2.86;72.28;102432.28;4193649;28;20041;-69
2024/01/30 07:20:45;;;;;;;;;;;;;;;2.87;72.39;102436.69;4192410;28;20015;-69
2024/01/30 07:22:47;;;;;;;;;;;;;;;2.88;72.34;102436.59;4193315;28;20083;-69
2024/01/30 07:24:50;;;;;;;;;;;;;;;2.89;72.10;102437.47;4192893;28;20468;-68
2024/01/30 07:26:53;;;;;;;;;;;;;;;2.91;72.17;102426.69;4186837;28;19928;-68
2024/01/30 07:28:55;;;;;;;;;;;;;;;2.92;72.02;102423.09;4199889;28;20371;-68
2024/01/30 07:30:58;;;;;;;;;;;;;;;2.93;72.15;102422.13;4187389;28;19964;-68
2024/01/30 07:33:00;;;;;;;;;;;;;;;2.95;72.11;102420.25;4186768;28;20051;-68
2024/01/30 07:35:02;;;;;;;;;;;;;;;2.97;72.19;102418.34;4191205;28;20134;-68
2024/01/30 07:37:03;;;;;;;;;;;;;;;2.96;71.88;102424.63;4188291;28;20023;-68
2024/01/30 07:39:05;;;;;;;;;;;;;;;2.95;71.81;102428.25;4196211;28;19995;-68
2024/01/30 07:41:07;;;;;;;;;;;;;;;2.96;72.04;102424.63;4192813;28;20011;-68
2024/01/30 07:43:10;;;;;;;;;;;;;;;2.98;72.02;102426.28;4188807;28;21292;-68
2024/01/30 07:45:12;;;;;;;;;;;;;;;2.98;72.17;102428.06;4196616;28;19971;-68
2024/01/30 07:47:15;;;;;;;;;;;;;;;2.99;72.09;102419.09;4180893;28;20434;-68
2024/01/30 07:49:17;;;;;;;;;;;;;;;2.99;71.85;102419.97;4193409;28;20036;-68
2024/01/30 07:51:19;;;;;;;;;;;;;;;3.01;72.12;102426.09;4196371;28;19960;-68
2024/01/30 07:53:21;;;;;;;;;;;;;;;3.04;72.18;102425.03;4180424;28;20039;-68
2024/01/30 07:55:24;;;;;;;;;;;;;;;3.04;72.40;102417.03;4198095;28;19955;-68
2024/01/30 07:57:26;;;;;;;;;;;;;;;3.05;72.07;102422.28;4176278;28;19952;-68
2024/01/30 07:59:28;;;;;;;;;;;;;;;3.08;71.93;102423.09;4191728;28;20004;-68
2024/01/30 08:01:30;;;;;;;;;;;;;;;3.09;72.18;102435.47;4197631;28;19956;-68
2024/01/30 08:03:34;;;;;;;;;;;;;;;3.10;72.21;102430.03;4194006;28;20011;-68
2024/01/30 08:05:36;;;;;;;;;;;;;;;3.11;72.27;102421.09;4199233;28;19968;-68
2024/01/30 08:07:38;;;;;;;;;;;;;;;3.13;71.97;102424.53;4194560;28;19967;-68
2024/01/30 08:09:40;;;;;;;;;;;;;;;3.14;72.20;102428.06;4198452;28;20363;-68
2024/01/30 08:11:41;;;;;;;;;;;;;;;3.16;72.18;102419.00;4186314;28;19967;-68
2024/01/30 08:13:43;;;;;;;;;;;;;;;3.17;72.05;102420.75;4193780;28;19928;-68
2024/01/30 08:15:44;;;;;;;;;;;;;;;3.19;72.13;102423.31;4190680;28;20022;-68
2024/01/30 08:17:46;;;;;;;;;;;;;;;3.20;72.05;102420.56;4192100;28;20317;-68
2024/01/30 08:19:49;;;;;;;;;;;;;;;3.22;72.15;102417.81;4191245;28;19971;-68
2024/01/30 08:21:51;;;;;;;;;;;;;;;3.24;71.89;102416.78;4190535;28;20028;-68
2024/01/30 08:23:52;;;;;;;;;;;;;;;3.27;72.01;102414.88;4194736;28;20035;-68
2024/01/30 08:25:54;;;;;;;;;;;;;;;3.29;71.88;102412.97;4196700;28;20011;-68
2024/01/30 08:27:57;;;;;;;;;;;;;;;3.32;72.00;102410.13;4194238;28;19925;-68
2024/01/30 08:29:59;;;;;;;;;;;;;;;3.33;71.83;102404.69;4179561;28;20015;-68
2024/01/30 08:32:00;;;;;;;;;;;;;;;3.36;71.88;102409.88;4191298;28;20015;-68
2024/01/30 08:34:02;;;;;;;;;;;;;;;3.38;72.11;102405.28;4192153;28;20039;-68
2024/01/30 08:36:06;;;;;;;;;;;;;;;3.42;71.88;102396.16;4194326;28;20365;-68
2024/01/30 08:38:08;;;;;;;;;;;;;;;3.46;71.82;102390.63;4188952;28;20019;-68
2024/01/30 08:40:10;;;;;;;;;;;;;;;3.50;71.72;102400.19;4191715;28;20010;-68
2024/01/30 08:42:12;;;;;;;;;;;;;;;3.52;71.78;102399.13;4174125;28;20028;-68
2024/01/30 08:44:14;;;;;;;;;;;;;;;3.55;71.91;102398.97;4175978;28;19964;-68
2024/01/30 08:46:18;;;;;;;;;;;;;;;3.58;71.94;102395.25;4196824;28;20103;-68
2024/01/30 08:48:19;;;;;;;;;;;;;;;3.60;72.09;102388.88;4191865;28;20023;-68
2024/01/30 08:50:21;;;;;;;;;;;;;;;3.64;71.80;102392.22;4196414;28;19925;-68
2024/01/30 08:52:24;;;;;;;;;;;;;;;3.68;71.68;102387.53;4192075;28;20051;-68
2024/01/30 08:54:26;;;;;;;;;;;;;;;3.71;71.50;102393.56;4195093;28;19966;-68
2024/01/30 08:56:28;;;;;;;;;;;;;;;3.74;71.36;102400.53;4179476;28;19968;-68
2024/01/30 08:58:29;;;;;;;;;;;;;;;3.78;71.81;102394.06;4194771;28;20043;-68
2024/01/30 09:00:31;;;;;;;;;;;;;;;3.82;71.49;102402.75;4196945;28;19931;-68
2024/01/30 09:02:33;;;;;;;;;;;;;;;3.85;71.29;102400.75;4193521;28;20594;-68
2024/01/30 09:04:35;;;;;;;;;;;;;;;3.88;71.35;102405.06;4174368;28;20029;-68
2024/01/30 09:06:39;;;;;;;;;;;;;;;3.93;71.25;102402.97;4193704;28;20358;-68
2024/01/30 09:08:42;;;;;;;;;;;;;;;3.98;70.90;102406.22;4196761;28;19924;-68
2024/01/30 09:10:44;;;;;;;;;;;;;;;4.02;70.78;102407.75;4189458;28;20012;-68
2024/01/30 09:12:46;;;;;;;;;;;;;;;4.08;70.71;102403.84;4193811;28;19964;-68
2024/01/30 09:14:47;;;;;;;;;;;;;;;4.12;70.46;102387.53;4193528;28;19966;-68
2024/01/30 09:16:49;;;;;;;;;;;;;;;4.18;70.44;102394.31;4194531;28;20377;-68
2024/01/30 09:18:51;;;;;;;;;;;;;;;4.25;70.31;102392.13;4191711;28;20065;-68
2024/01/30 09:20:53;;;;;;;;;;;;;;;4.29;69.88;102397.16;4179135;28;19960;-68
2024/01/30 09:22:55;;;;;;;;;;;;;;;4.33;69.99;102398.69;4192075;28;19975;-68
2024/01/30 09:24:59;;;;;;;;;;;;;;;4.40;69.87;102404.53;4190788;28;20357;-68
2024/01/30 09:27:01;;;;;;;;;;;;;;;4.45;69.71;102401.56;4189081;28;20434;-68
2024/01/30 09:29:03;;;;;;;;;;;;;;;4.49;69.70;102405.78;4191032;28;20023;-68
2024/01/30 09:31:05;;;;;;;;;;;;;;;4.55;69.57;102405.38;4194390;28;19955;-68
2024/01/30 09:33:07;;;;;;;;;;;;;;;4.58;69.39;102407.88;4196011;28;20012;-68
2024/01/30 09:35:08;;;;;;;;;;;;;;;4.61;69.26;102404.16;4194550;28;20003;-68
2024/01/30 09:37:11;;;;;;;;;;;;;;;4.67;68.99;102403.72;4194082;28;20366;-68
2024/01/30 09:39:14;;;;;;;;;;;;;;;4.71;68.90;102404.41;4192005;28;20011;-68
2024/01/30 09:41:16;;;;;;;;;;;;;;;4.74;68.99;102394.38;4187944;28;19967;-68
2024/01/30 09:43:18;;;;;;;;;;;;;;;4.77;68.89;102394.19;4176869;28;20011;-68
2024/01/30 09:45:20;;;;;;;;;;;;;;;4.82;68.83;102391.19;4192229;28;20448;-68
2024/01/30 09:47:21;;;;;;;;;;;;;;;4.85;68.45;102394.53;4196307;28;20010;-68
2024/01/30 09:49:24;;;;;;;;;;;;;;;4.89;68.46;102392.53;4175935;28;20024;-68
2024/01/30 09:51:25;;;;;;;;;;;;;;;4.92;68.09;102383.44;4195849;28;19967;-68
2024/01/30 09:53:27;;;;;;;;;;;;;;;4.94;68.13;102382.38;4195373;28;20005;-68
2024/01/30 09:55:29;;;;;;;;;;;;;;;4.97;68.12;102389.34;4193534;28;20019;-68
2024/01/30 09:57:31;;;;;;;;;;;;;;;4.99;68.26;102382.09;4195335;28;20019;-68
2024/01/30 09:59:33;;;;;;;;;;;;;;;5.02;68.15;102384.56;4192243;28;20024;-68
2024/01/30 10:01:35;;;;;;;;;;;;;;;5.07;67.92;102385.09;4194088;28;19963;-68
2024/01/30 10:03:37;;;;;;;;;;;;;;;5.09;67.67;102388.53;4195896;28;20372;-68
2024/01/30 10:05:39;;;;;;;;;;;;;;;5.13;67.60;102384.72;4193520;28;20012;-68
2024/01/30 10:07:50;;;;;;;;;;;;;;;5.14;67.55;102389.13;4192010;28;20441;-68
2024/01/30 10:09:53;;;;;;;;;;;;;;;5.19;67.21;102388.81;4179613;28;20473;-68
2024/01/30 10:11:55;;;;;;;;;;;;;;;5.21;67.22;102384.19;4192221;28;19968;-68
2024/01/30 10:13:58;;;;;;;;;;;;;;;5.23;67.18;102380.47;4189310;28;19971;-68
2024/01/30 10:16:02;;;;;;;;;;;;;;;5.25;66.86;102377.69;4194004;28;20023;-68
2024/01/30 10:18:06;;;;;;;;;;;;;;;5.28;66.81;102366.75;4195647;28;20362;-68
2024/01/30 10:20:08;;;;;;;;;;;;;;;5.34;66.98;102374.38;4192396;28;19956;-68
2024/01/30 10:22:10;;;;;;;;;;;;;;;5.37;66.50;102376.84;4192683;28;19964;-68
2024/01/30 10:24:12;;;;;;;;;;;;;;;5.39;66.58;102371.38;4194860;28;19999;-68
2024/01/30 10:26:14;;;;;;;;;;;;;;;5.42;66.41;102373.84;4190387;28;20187;-68
2024/01/30 10:28:15;;;;;;;;;;;;;;;5.48;66.69;102369.91;4170542;28;20477;-68
2024/01/30 10:30:19;;;;;;;;;;;;;;;5.50;66.29;102365.31;4177739;28;19932;-68
2024/01/30 10:32:20;;;;;;;;;;;;;;;5.51;66.26;102364.34;4191509;28;19962;-68
2024/01/30 10:34:21;;;;;;;;;;;;;;;5.54;65.95;102364.16;4192682;28;20350;-68
2024/01/30 10:36:24;;;;;;;;;;;;;;;5.58;65.68;102355.78;4187985;28;19926;-68